sensor_id;sensor_type;location;lat;lon;timestamp;temperature;humidity
25482;DHT22;13395;50.752;4.268;2023-07-31T00:00:23;18.60;99.90
25482;DHT22;13395;50.752;4.268;2023-07-31T00:02:49;18.60;99.90
25482;DHT22;13395;50.752;4.268;2023-07-31T00:05:15;18.60;99.90
25482;DHT22;13395;50.752;4.268;2023-07-31T00:07:40;18.60;99.90
25482;DHT22;13395;50.752;4.268;2023-07-31T00:10:06;18.60;99.90
25482;DHT22;13395;50.752;4.268;2023-07-31T00:12:32;18.60;99.90
25482;DHT22;13395;50.752;4.268;2023-07-31T00:14:58;18.60;99.90
25482;DHT22;13395;50.752;4.268;2023-07-31T00:17:23;18.70;99.90
25482;DHT22;13395;50.752;4.268;2023-07-31T00:19:49;18.70;99.90
25482;DHT22;13395;50.752;4.268;2023-07-31T00:22:16;18.60;99.90
25482;DHT22;13395;50.752;4.268;2023-07-31T00:24:41;18.50;99.90
25482;DHT22;13395;50.752;4.268;2023-07-31T00:27:07;18.50;99.90
25482;DHT22;13395;50.752;4.268;2023-07-31T00:29:32;18.50;99.90
25482;DHT22;13395;50.752;4.268;2023-07-31T00:31:58;18.60;99.90
25482;DHT22;13395;50.752;4.268;2023-07-31T00:34:23;18.60;99.90
25482;DHT22;13395;50.752;4.268;2023-07-31T00:36:49;18.60;99.90
25482;DHT22;13395;50.752;4.268;2023-07-31T00:39:15;18.60;99.90
25482;DHT22;13395;50.752;4.268;2023-07-31T00:41:40;18.70;99.90
25482;DHT22;13395;50.752;4.268;2023-07-31T00:44:06;18.60;99.90
25482;DHT22;13395;50.752;4.268;2023-07-31T00:46:31;18.70;99.90
25482;DHT22;13395;50.752;4.268;2023-07-31T00:48:57;18.60;99.90
25482;DHT22;13395;50.752;4.268;2023-07-31T00:51:22;18.50;99.90
25482;DHT22;13395;50.752;4.268;2023-07-31T00:53:48;18.50;99.90
25482;DHT22;13395;50.752;4.268;2023-07-31T00:56:14;18.70;99.90
25482;DHT22;13395;50.752;4.268;2023-07-31T00:58:40;18.60;99.90
25482;DHT22;13395;50.752;4.268;2023-07-31T01:01:06;18.60;99.90
25482;DHT22;13395;50.752;4.268;2023-07-31T01:03:32;18.60;99.90
25482;DHT22;13395;50.752;4.268;2023-07-31T01:09:08;18.50;99.90
25482;DHT22;13395;50.752;4.268;2023-07-31T01:11:50;18.40;99.90
25482;DHT22;13395;50.752;4.268;2023-07-31T01:14:17;18.40;99.90
25482;DHT22;13395;50.752;4.268;2023-07-31T01:16:43;18.50;99.90
25482;DHT22;13395;50.752;4.268;2023-07-31T01:19:09;18.40;99.90
25482;DHT22;13395;50.752;4.268;2023-07-31T01:24:50;18.50;99.90
25482;DHT22;13395;50.752;4.268;2023-07-31T01:27:30;18.40;99.90
25482;DHT22;13395;50.752;4.268;2023-07-31T01:30:05;18.30;99.90
25482;DHT22;13395;50.752;4.268;2023-07-31T01:32:37;18.30;99.90
25482;DHT22;13395;50.752;4.268;2023-07-31T01:35:04;18.30;99.90
25482;DHT22;13395;50.752;4.268;2023-07-31T01:37:30;18.40;99.90
25482;DHT22;13395;50.752;4.268;2023-07-31T01:39:56;18.40;99.90
25482;DHT22;13395;50.752;4.268;2023-07-31T01:42:21;18.50;99.90
25482;DHT22;13395;50.752;4.268;2023-07-31T01:44:47;18.50;99.90
25482;DHT22;13395;50.752;4.268;2023-07-31T01:47:12;18.50;99.90
25482;DHT22;13395;50.752;4.268;2023-07-31T01:49:38;18.50;99.90
25482;DHT22;13395;50.752;4.268;2023-07-31T01:52:04;18.40;99.90
25482;DHT22;13395;50.752;4.268;2023-07-31T01:54:29;18.50;99.90
25482;DHT22;13395;50.752;4.268;2023-07-31T01:56:55;18.50;99.90
25482;DHT22;13395;50.752;4.268;2023-07-31T01:59:21;18.40;99.90
25482;DHT22;13395;50.752;4.268;2023-07-31T02:01:46;18.50;99.90
25482;DHT22;13395;50.752;4.268;2023-07-31T02:04:12;18.50;99.90
25482;DHT22;13395;50.752;4.268;2023-07-31T02:06:38;18.50;99.90
25482;DHT22;13395;50.752;4.268;2023-07-31T02:09:04;18.50;99.90
25482;DHT22;13395;50.752;4.268;2023-07-31T02:11:30;18.50;99.90
25482;DHT22;13395;50.752;4.268;2023-07-31T02:13:55;18.40;99.90
25482;DHT22;13395;50.752;4.268;2023-07-31T02:16:21;18.40;99.90
25482;DHT22;13395;50.752;4.268;2023-07-31T02:18:46;18.40;99.90
25482;DHT22;13395;50.752;4.268;2023-07-31T02:21:12;18.40;99.90
25482;DHT22;13395;50.752;4.268;2023-07-31T02:23:37;18.50;99.90
25482;DHT22;13395;50.752;4.268;2023-07-31T02:26:03;18.50;99.90
25482;DHT22;13395;50.752;4.268;2023-07-31T02:28:29;18.50;99.90
25482;DHT22;13395;50.752;4.268;2023-07-31T02:30:55;18.50;99.90
25482;DHT22;13395;50.752;4.268;2023-07-31T02:33:20;18.40;99.90
25482;DHT22;13395;50.752;4.268;2023-07-31T02:35:46;18.40;99.90
25482;DHT22;13395;50.752;4.268;2023-07-31T02:38:12;18.30;99.90
25482;DHT22;13395;50.752;4.268;2023-07-31T02:40:39;18.30;99.90
25482;DHT22;13395;50.752;4.268;2023-07-31T02:43:05;18.40;99.90
25482;DHT22;13395;50.752;4.268;2023-07-31T02:45:30;18.40;99.90
25482;DHT22;13395;50.752;4.268;2023-07-31T02:47:56;18.40;99.90
25482;DHT22;13395;50.752;4.268;2023-07-31T02:50:22;18.50;99.90
25482;DHT22;13395;50.752;4.268;2023-07-31T02:52:47;18.50;99.90
25482;DHT22;13395;50.752;4.268;2023-07-31T02:55:13;18.40;99.90
25482;DHT22;13395;50.752;4.268;2023-07-31T02:57:39;18.40;99.90
25482;DHT22;13395;50.752;4.268;2023-07-31T03:00:05;18.40;99.90
25482;DHT22;13395;50.752;4.268;2023-07-31T03:02:32;18.50;99.90
25482;DHT22;13395;50.752;4.268;2023-07-31T03:04:57;18.40;99.90
25482;DHT22;13395;50.752;4.268;2023-07-31T03:07:23;18.40;99.90
25482;DHT22;13395;50.752;4.268;2023-07-31T03:09:48;18.40;99.90
25482;DHT22;13395;50.752;4.268;2023-07-31T03:12:14;18.50;99.90
25482;DHT22;13395;50.752;4.268;2023-07-31T03:14:40;18.50;99.90
25482;DHT22;13395;50.752;4.268;2023-07-31T03:17:06;18.40;99.90
25482;DHT22;13395;50.752;4.268;2023-07-31T03:19:32;18.40;99.90
25482;DHT22;13395;50.752;4.268;2023-07-31T03:21:58;18.40;99.90
25482;DHT22;13395;50.752;4.268;2023-07-31T03:24:24;18.50;99.90
25482;DHT22;13395;50.752;4.268;2023-07-31T03:26:50;18.40;99.90
25482;DHT22;13395;50.752;4.268;2023-07-31T03:29:15;18.40;99.90
25482;DHT22;13395;50.752;4.268;2023-07-31T03:31:41;18.40;99.90
25482;DHT22;13395;50.752;4.268;2023-07-31T03:34:06;18.50;99.90
25482;DHT22;13395;50.752;4.268;2023-07-31T03:36:32;18.40;99.90
25482;DHT22;13395;50.752;4.268;2023-07-31T03:38:57;18.30;99.90
25482;DHT22;13395;50.752;4.268;2023-07-31T03:41:23;18.30;99.90
25482;DHT22;13395;50.752;4.268;2023-07-31T03:43:50;18.30;99.90
25482;DHT22;13395;50.752;4.268;2023-07-31T03:46:22;18.30;99.90
25482;DHT22;13395;50.752;4.268;2023-07-31T03:48:48;18.30;99.90
25482;DHT22;13395;50.752;4.268;2023-07-31T03:51:14;18.40;99.90
25482;DHT22;13395;50.752;4.268;2023-07-31T03:53:39;18.30;99.90
25482;DHT22;13395;50.752;4.268;2023-07-31T03:56:05;18.30;99.90
25482;DHT22;13395;50.752;4.268;2023-07-31T03:58:30;18.30;99.90
25482;DHT22;13395;50.752;4.268;2023-07-31T04:00:56;18.30;99.90
25482;DHT22;13395;50.752;4.268;2023-07-31T04:03:21;18.40;99.90
25482;DHT22;13395;50.752;4.268;2023-07-31T04:05:47;18.30;99.90
25482;DHT22;13395;50.752;4.268;2023-07-31T04:08:13;18.40;99.90
25482;DHT22;13395;50.752;4.268;2023-07-31T04:10:38;18.40;99.90
25482;DHT22;13395;50.752;4.268;2023-07-31T04:13:04;18.30;99.90
25482;DHT22;13395;50.752;4.268;2023-07-31T04:15:29;18.30;99.90
25482;DHT22;13395;50.752;4.268;2023-07-31T04:17:55;18.30;99.90
25482;DHT22;13395;50.752;4.268;2023-07-31T04:20:21;18.30;99.90
25482;DHT22;13395;50.752;4.268;2023-07-31T04:22:46;18.30;99.90
25482;DHT22;13395;50.752;4.268;2023-07-31T04:25:12;18.30;99.90
25482;DHT22;13395;50.752;4.268;2023-07-31T04:27:38;18.40;99.90
25482;DHT22;13395;50.752;4.268;2023-07-31T04:30:04;18.40;99.90
25482;DHT22;13395;50.752;4.268;2023-07-31T04:32:30;18.40;99.90
25482;DHT22;13395;50.752;4.268;2023-07-31T04:34:56;18.30;99.90
25482;DHT22;13395;50.752;4.268;2023-07-31T04:37:21;18.40;99.90
25482;DHT22;13395;50.752;4.268;2023-07-31T04:39:47;18.40;99.90
25482;DHT22;13395;50.752;4.268;2023-07-31T04:42:13;18.30;99.90
25482;DHT22;13395;50.752;4.268;2023-07-31T04:44:38;18.30;99.90
25482;DHT22;13395;50.752;4.268;2023-07-31T04:47:04;18.30;99.90
25482;DHT22;13395;50.752;4.268;2023-07-31T04:49:29;18.30;99.90
25482;DHT22;13395;50.752;4.268;2023-07-31T04:51:55;18.40;99.90
25482;DHT22;13395;50.752;4.268;2023-07-31T04:54:20;18.40;99.90
25482;DHT22;13395;50.752;4.268;2023-07-31T04:56:46;18.30;99.90
25482;DHT22;13395;50.752;4.268;2023-07-31T04:59:12;18.30;99.90
25482;DHT22;13395;50.752;4.268;2023-07-31T05:01:38;18.30;99.90
25482;DHT22;13395;50.752;4.268;2023-07-31T05:04:04;18.30;99.90
25482;DHT22;13395;50.752;4.268;2023-07-31T05:06:29;18.30;99.90
25482;DHT22;13395;50.752;4.268;2023-07-31T05:08:55;18.20;99.90
25482;DHT22;13395;50.752;4.268;2023-07-31T05:11:20;18.30;99.90
25482;DHT22;13395;50.752;4.268;2023-07-31T05:13:46;18.20;99.90
25482;DHT22;13395;50.752;4.268;2023-07-31T05:16:11;18.10;99.90
25482;DHT22;13395;50.752;4.268;2023-07-31T05:18:37;18.00;99.90
25482;DHT22;13395;50.752;4.268;2023-07-31T05:21:03;18.00;99.90
25482;DHT22;13395;50.752;4.268;2023-07-31T05:23:28;18.00;99.90
25482;DHT22;13395;50.752;4.268;2023-07-31T05:25:54;17.90;99.90
25482;DHT22;13395;50.752;4.268;2023-07-31T05:28:21;17.90;99.90
25482;DHT22;13395;50.752;4.268;2023-07-31T05:30:47;17.90;99.90
25482;DHT22;13395;50.752;4.268;2023-07-31T05:33:13;17.90;99.90
25482;DHT22;13395;50.752;4.268;2023-07-31T05:35:38;18.00;99.90
25482;DHT22;13395;50.752;4.268;2023-07-31T05:38:04;17.90;99.90
25482;DHT22;13395;50.752;4.268;2023-07-31T05:40:32;17.90;99.90
25482;DHT22;13395;50.752;4.268;2023-07-31T05:42:58;17.90;99.90
25482;DHT22;13395;50.752;4.268;2023-07-31T05:45:24;17.90;99.90
25482;DHT22;13395;50.752;4.268;2023-07-31T05:47:50;17.80;99.90
25482;DHT22;13395;50.752;4.268;2023-07-31T05:50:16;18.00;99.90
25482;DHT22;13395;50.752;4.268;2023-07-31T05:52:41;17.80;99.90
25482;DHT22;13395;50.752;4.268;2023-07-31T05:55:08;17.70;99.90
25482;DHT22;13395;50.752;4.268;2023-07-31T05:57:33;17.70;99.90
25482;DHT22;13395;50.752;4.268;2023-07-31T05:59:59;17.80;99.90
25482;DHT22;13395;50.752;4.268;2023-07-31T06:02:24;17.80;99.90
25482;DHT22;13395;50.752;4.268;2023-07-31T06:04:50;17.90;99.90
25482;DHT22;13395;50.752;4.268;2023-07-31T06:07:15;17.90;99.90
25482;DHT22;13395;50.752;4.268;2023-07-31T06:09:41;18.00;99.90
25482;DHT22;13395;50.752;4.268;2023-07-31T06:12:07;17.90;99.90
25482;DHT22;13395;50.752;4.268;2023-07-31T06:14:32;17.90;99.90
25482;DHT22;13395;50.752;4.268;2023-07-31T06:16:58;18.00;99.90
25482;DHT22;13395;50.752;4.268;2023-07-31T06:19:24;18.00;99.90
25482;DHT22;13395;50.752;4.268;2023-07-31T06:21:49;18.10;99.90
25482;DHT22;13395;50.752;4.268;2023-07-31T06:24:16;18.00;99.90
25482;DHT22;13395;50.752;4.268;2023-07-31T06:26:44;18.00;99.90
25482;DHT22;13395;50.752;4.268;2023-07-31T06:29:10;17.90;99.90
25482;DHT22;13395;50.752;4.268;2023-07-31T06:31:35;17.90;99.90
25482;DHT22;13395;50.752;4.268;2023-07-31T06:34:01;17.90;99.90
25482;DHT22;13395;50.752;4.268;2023-07-31T06:36:26;18.00;99.90
25482;DHT22;13395;50.752;4.268;2023-07-31T06:38:52;18.00;99.90
25482;DHT22;13395;50.752;4.268;2023-07-31T06:41:17;18.10;99.90
25482;DHT22;13395;50.752;4.268;2023-07-31T06:43:43;18.20;99.90
25482;DHT22;13395;50.752;4.268;2023-07-31T06:46:09;18.20;99.90
25482;DHT22;13395;50.752;4.268;2023-07-31T06:48:35;18.30;99.90
25482;DHT22;13395;50.752;4.268;2023-07-31T06:51:02;18.30;99.90
25482;DHT22;13395;50.752;4.268;2023-07-31T06:53:28;18.40;99.90
25482;DHT22;13395;50.752;4.268;2023-07-31T06:55:54;18.50;99.90
25482;DHT22;13395;50.752;4.268;2023-07-31T06:58:20;18.70;99.90
25482;DHT22;13395;50.752;4.268;2023-07-31T07:00:45;18.70;99.90
25482;DHT22;13395;50.752;4.268;2023-07-31T07:03:11;18.90;99.90
25482;DHT22;13395;50.752;4.268;2023-07-31T07:05:36;19.10;99.90
25482;DHT22;13395;50.752;4.268;2023-07-31T07:08:02;19.20;99.90
25482;DHT22;13395;50.752;4.268;2023-07-31T07:10:28;19.30;99.90
25482;DHT22;13395;50.752;4.268;2023-07-31T07:12:54;19.30;99.90
25482;DHT22;13395;50.752;4.268;2023-07-31T07:15:20;19.30;99.90
25482;DHT22;13395;50.752;4.268;2023-07-31T07:17:46;19.30;99.90
25482;DHT22;13395;50.752;4.268;2023-07-31T07:20:12;19.40;99.90
25482;DHT22;13395;50.752;4.268;2023-07-31T07:22:38;19.30;99.90
25482;DHT22;13395;50.752;4.268;2023-07-31T07:25:04;19.20;99.90
25482;DHT22;13395;50.752;4.268;2023-07-31T07:27:30;19.20;99.90
25482;DHT22;13395;50.752;4.268;2023-07-31T07:29:56;19.30;99.90
25482;DHT22;13395;50.752;4.268;2023-07-31T07:32:21;19.40;99.90
25482;DHT22;13395;50.752;4.268;2023-07-31T07:34:48;19.40;99.90
25482;DHT22;13395;50.752;4.268;2023-07-31T07:37:14;19.30;99.90
25482;DHT22;13395;50.752;4.268;2023-07-31T07:39:40;19.40;99.90
25482;DHT22;13395;50.752;4.268;2023-07-31T07:42:06;19.40;99.90
25482;DHT22;13395;50.752;4.268;2023-07-31T07:44:32;19.40;99.90
25482;DHT22;13395;50.752;4.268;2023-07-31T07:46:57;19.40;99.90
25482;DHT22;13395;50.752;4.268;2023-07-31T07:49:23;19.40;99.90
25482;DHT22;13395;50.752;4.268;2023-07-31T07:51:49;19.30;99.90
25482;DHT22;13395;50.752;4.268;2023-07-31T07:54:15;19.20;99.90
25482;DHT22;13395;50.752;4.268;2023-07-31T07:56:42;19.10;99.90
25482;DHT22;13395;50.752;4.268;2023-07-31T07:59:08;19.30;99.90
25482;DHT22;13395;50.752;4.268;2023-07-31T08:01:34;19.30;99.90
25482;DHT22;13395;50.752;4.268;2023-07-31T08:03:59;19.20;99.90
25482;DHT22;13395;50.752;4.268;2023-07-31T08:06:25;19.20;99.90
25482;DHT22;13395;50.752;4.268;2023-07-31T08:08:51;19.20;99.90
25482;DHT22;13395;50.752;4.268;2023-07-31T08:11:16;19.30;99.90
25482;DHT22;13395;50.752;4.268;2023-07-31T08:13:42;19.30;99.90
25482;DHT22;13395;50.752;4.268;2023-07-31T08:16:07;19.40;99.90
25482;DHT22;13395;50.752;4.268;2023-07-31T08:18:34;19.30;99.90
25482;DHT22;13395;50.752;4.268;2023-07-31T08:20:59;19.20;99.90
25482;DHT22;13395;50.752;4.268;2023-07-31T08:23:26;19.10;99.90
25482;DHT22;13395;50.752;4.268;2023-07-31T08:25:52;19.00;99.90
25482;DHT22;13395;50.752;4.268;2023-07-31T08:28:17;19.00;99.90
25482;DHT22;13395;50.752;4.268;2023-07-31T08:30:43;19.00;99.90
25482;DHT22;13395;50.752;4.268;2023-07-31T08:33:09;19.10;99.90
25482;DHT22;13395;50.752;4.268;2023-07-31T08:35:36;19.10;99.90
25482;DHT22;13395;50.752;4.268;2023-07-31T08:38:02;19.30;99.90
25482;DHT22;13395;50.752;4.268;2023-07-31T08:40:28;19.50;99.90
25482;DHT22;13395;50.752;4.268;2023-07-31T08:42:55;19.50;99.90
25482;DHT22;13395;50.752;4.268;2023-07-31T08:45:28;19.30;99.90
25482;DHT22;13395;50.752;4.268;2023-07-31T08:47:54;19.30;99.90
25482;DHT22;13395;50.752;4.268;2023-07-31T08:50:21;19.30;99.90
25482;DHT22;13395;50.752;4.268;2023-07-31T08:52:48;19.20;99.90
25482;DHT22;13395;50.752;4.268;2023-07-31T08:55:14;19.20;99.90
25482;DHT22;13395;50.752;4.268;2023-07-31T08:57:41;19.40;99.90
25482;DHT22;13395;50.752;4.268;2023-07-31T09:00:09;19.20;99.90
25482;DHT22;13395;50.752;4.268;2023-07-31T09:02:43;19.20;99.90
25482;DHT22;13395;50.752;4.268;2023-07-31T09:05:10;19.20;99.90
25482;DHT22;13395;50.752;4.268;2023-07-31T09:07:37;19.40;99.90
25482;DHT22;13395;50.752;4.268;2023-07-31T09:10:03;19.60;99.90
25482;DHT22;13395;50.752;4.268;2023-07-31T09:12:29;19.60;99.90
25482;DHT22;13395;50.752;4.268;2023-07-31T09:14:56;19.70;99.90
25482;DHT22;13395;50.752;4.268;2023-07-31T09:17:33;19.90;99.90
25482;DHT22;13395;50.752;4.268;2023-07-31T09:20:19;20.00;99.90
25482;DHT22;13395;50.752;4.268;2023-07-31T09:22:45;20.00;99.90
25482;DHT22;13395;50.752;4.268;2023-07-31T09:25:20;20.20;99.90
25482;DHT22;13395;50.752;4.268;2023-07-31T09:27:50;20.20;99.90
25482;DHT22;13395;50.752;4.268;2023-07-31T09:30:17;20.10;99.90
25482;DHT22;13395;50.752;4.268;2023-07-31T09:32:44;20.20;99.90
25482;DHT22;13395;50.752;4.268;2023-07-31T09:35:30;20.00;99.90
25482;DHT22;13395;50.752;4.268;2023-07-31T09:38:03;20.00;99.90
25482;DHT22;13395;50.752;4.268;2023-07-31T09:40:34;20.10;99.90
25482;DHT22;13395;50.752;4.268;2023-07-31T09:43:02;20.20;99.90
25482;DHT22;13395;50.752;4.268;2023-07-31T09:45:29;20.30;99.90
25482;DHT22;13395;50.752;4.268;2023-07-31T09:47:55;20.40;99.90
25482;DHT22;13395;50.752;4.268;2023-07-31T09:50:23;20.50;99.90
25482;DHT22;13395;50.752;4.268;2023-07-31T09:52:49;20.60;99.90
25482;DHT22;13395;50.752;4.268;2023-07-31T09:55:15;20.80;99.90
25482;DHT22;13395;50.752;4.268;2023-07-31T09:57:46;20.80;99.90
25482;DHT22;13395;50.752;4.268;2023-07-31T10:00:13;20.80;99.90
25482;DHT22;13395;50.752;4.268;2023-07-31T10:02:39;20.80;99.90
25482;DHT22;13395;50.752;4.268;2023-07-31T10:05:06;20.80;99.90
25482;DHT22;13395;50.752;4.268;2023-07-31T10:07:37;20.80;99.90
25482;DHT22;13395;50.752;4.268;2023-07-31T10:10:05;20.90;99.90
25482;DHT22;13395;50.752;4.268;2023-07-31T10:12:33;20.90;99.90
25482;DHT22;13395;50.752;4.268;2023-07-31T10:15:00;21.00;99.90
25482;DHT22;13395;50.752;4.268;2023-07-31T10:17:26;21.10;99.90
25482;DHT22;13395;50.752;4.268;2023-07-31T10:19:53;21.30;99.90
25482;DHT22;13395;50.752;4.268;2023-07-31T10:22:20;21.40;99.90
25482;DHT22;13395;50.752;4.268;2023-07-31T10:24:46;21.40;99.90
25482;DHT22;13395;50.752;4.268;2023-07-31T10:27:13;21.40;99.90
25482;DHT22;13395;50.752;4.268;2023-07-31T10:29:40;21.40;99.90
25482;DHT22;13395;50.752;4.268;2023-07-31T10:32:10;21.40;99.90
25482;DHT22;13395;50.752;4.268;2023-07-31T10:34:39;21.40;99.90
25482;DHT22;13395;50.752;4.268;2023-07-31T10:37:30;21.50;99.90
25482;DHT22;13395;50.752;4.268;2023-07-31T10:42:35;21.10;99.90
25482;DHT22;13395;50.752;4.268;2023-07-31T10:45:06;21.00;99.90
25482;DHT22;13395;50.752;4.268;2023-07-31T10:47:37;20.80;99.90
25482;DHT22;13395;50.752;4.268;2023-07-31T10:50:20;20.80;99.90
25482;DHT22;13395;50.752;4.268;2023-07-31T10:52:51;20.90;99.90
25482;DHT22;13395;50.752;4.268;2023-07-31T10:58:08;20.80;99.90
25482;DHT22;13395;50.752;4.268;2023-07-31T11:00:43;20.80;99.90
25482;DHT22;13395;50.752;4.268;2023-07-31T11:03:13;21.00;99.90
25482;DHT22;13395;50.752;4.268;2023-07-31T11:06:03;21.30;99.90
25482;DHT22;13395;50.752;4.268;2023-07-31T11:08:30;21.40;99.90
25482;DHT22;13395;50.752;4.268;2023-07-31T11:13:29;21.50;99.90
25482;DHT22;13395;50.752;4.268;2023-07-31T11:15:55;21.40;99.90
25482;DHT22;13395;50.752;4.268;2023-07-31T11:18:20;21.30;99.90
25482;DHT22;13395;50.752;4.268;2023-07-31T11:20:46;21.20;99.90
25482;DHT22;13395;50.752;4.268;2023-07-31T11:23:12;21.00;99.90
25482;DHT22;13395;50.752;4.268;2023-07-31T11:25:39;21.00;99.90
25482;DHT22;13395;50.752;4.268;2023-07-31T11:28:14;21.00;99.90
25482;DHT22;13395;50.752;4.268;2023-07-31T11:30:42;21.00;99.90
25482;DHT22;13395;50.752;4.268;2023-07-31T11:33:09;21.10;99.90
25482;DHT22;13395;50.752;4.268;2023-07-31T11:35:46;21.20;99.90
25482;DHT22;13395;50.752;4.268;2023-07-31T11:40:48;21.10;99.90
25482;DHT22;13395;50.752;4.268;2023-07-31T11:43:13;21.10;99.90
25482;DHT22;13395;50.752;4.268;2023-07-31T11:45:46;21.10;99.90
25482;DHT22;13395;50.752;4.268;2023-07-31T11:48:22;21.10;99.90
25482;DHT22;13395;50.752;4.268;2023-07-31T11:50:49;21.20;99.90
25482;DHT22;13395;50.752;4.268;2023-07-31T11:53:17;21.30;99.90
25482;DHT22;13395;50.752;4.268;2023-07-31T11:55:44;21.40;99.90
25482;DHT22;13395;50.752;4.268;2023-07-31T11:58:14;21.50;99.90
25482;DHT22;13395;50.752;4.268;2023-07-31T12:00:40;21.60;99.90
25482;DHT22;13395;50.752;4.268;2023-07-31T12:03:06;21.80;99.90
25482;DHT22;13395;50.752;4.268;2023-07-31T12:05:32;21.70;99.90
25482;DHT22;13395;50.752;4.268;2023-07-31T12:07:58;21.80;99.90
25482;DHT22;13395;50.752;4.268;2023-07-31T12:10:29;21.90;99.90
25482;DHT22;13395;50.752;4.268;2023-07-31T12:15:22;22.00;99.90
25482;DHT22;13395;50.752;4.268;2023-07-31T12:17:53;22.00;99.90
25482;DHT22;13395;50.752;4.268;2023-07-31T12:20:20;22.00;99.90
25482;DHT22;13395;50.752;4.268;2023-07-31T12:22:45;21.90;99.90
25482;DHT22;13395;50.752;4.268;2023-07-31T12:25:15;22.10;99.90
25482;DHT22;13395;50.752;4.268;2023-07-31T12:27:44;22.20;99.90
25482;DHT22;13395;50.752;4.268;2023-07-31T12:30:31;22.10;99.90
25482;DHT22;13395;50.752;4.268;2023-07-31T12:32:57;22.00;99.90
25482;DHT22;13395;50.752;4.268;2023-07-31T12:35:23;22.00;99.90
25482;DHT22;13395;50.752;4.268;2023-07-31T12:37:49;22.00;99.90
25482;DHT22;13395;50.752;4.268;2023-07-31T12:40:14;22.10;99.90
25482;DHT22;13395;50.752;4.268;2023-07-31T12:42:41;22.20;99.90
25482;DHT22;13395;50.752;4.268;2023-07-31T12:45:07;22.30;99.90
25482;DHT22;13395;50.752;4.268;2023-07-31T12:47:36;22.50;99.90
25482;DHT22;13395;50.752;4.268;2023-07-31T12:50:01;22.50;99.90
25482;DHT22;13395;50.752;4.268;2023-07-31T12:52:27;22.40;99.90
25482;DHT22;13395;50.752;4.268;2023-07-31T12:54:53;22.20;99.90
25482;DHT22;13395;50.752;4.268;2023-07-31T12:57:18;22.10;99.90
25482;DHT22;13395;50.752;4.268;2023-07-31T12:59:45;21.90;99.90
25482;DHT22;13395;50.752;4.268;2023-07-31T13:02:10;21.70;99.90
25482;DHT22;13395;50.752;4.268;2023-07-31T13:04:36;21.60;99.90
25482;DHT22;13395;50.752;4.268;2023-07-31T13:07:01;21.50;99.90
25482;DHT22;13395;50.752;4.268;2023-07-31T13:09:27;21.40;99.90
25482;DHT22;13395;50.752;4.268;2023-07-31T13:11:53;21.20;99.90
25482;DHT22;13395;50.752;4.268;2023-07-31T13:14:18;20.90;99.90
25482;DHT22;13395;50.752;4.268;2023-07-31T13:16:44;20.90;99.90
25482;DHT22;13395;50.752;4.268;2023-07-31T13:19:09;20.60;99.90
25482;DHT22;13395;50.752;4.268;2023-07-31T13:21:35;20.60;99.90
25482;DHT22;13395;50.752;4.268;2023-07-31T13:24:02;20.60;99.90
25482;DHT22;13395;50.752;4.268;2023-07-31T13:26:27;20.40;99.90
25482;DHT22;13395;50.752;4.268;2023-07-31T13:28:53;20.30;99.90
25482;DHT22;13395;50.752;4.268;2023-07-31T13:31:19;20.20;99.90
25482;DHT22;13395;50.752;4.268;2023-07-31T13:33:44;20.00;99.90
25482;DHT22;13395;50.752;4.268;2023-07-31T13:36:10;19.90;99.90
25482;DHT22;13395;50.752;4.268;2023-07-31T13:38:36;19.90;99.90
25482;DHT22;13395;50.752;4.268;2023-07-31T13:41:01;19.90;99.90
25482;DHT22;13395;50.752;4.268;2023-07-31T13:43:27;19.90;99.90
25482;DHT22;13395;50.752;4.268;2023-07-31T13:45:53;19.90;99.90
25482;DHT22;13395;50.752;4.268;2023-07-31T13:48:18;19.90;99.90
25482;DHT22;13395;50.752;4.268;2023-07-31T13:50:44;19.90;99.90
25482;DHT22;13395;50.752;4.268;2023-07-31T13:53:09;19.90;99.90
25482;DHT22;13395;50.752;4.268;2023-07-31T13:55:35;19.90;99.90
25482;DHT22;13395;50.752;4.268;2023-07-31T13:58:00;19.80;99.90
25482;DHT22;13395;50.752;4.268;2023-07-31T14:00:26;19.80;99.90
25482;DHT22;13395;50.752;4.268;2023-07-31T14:02:54;19.80;99.90
25482;DHT22;13395;50.752;4.268;2023-07-31T14:05:19;19.80;99.90
25482;DHT22;13395;50.752;4.268;2023-07-31T14:07:45;19.80;99.90
25482;DHT22;13395;50.752;4.268;2023-07-31T14:10:10;19.90;99.90
25482;DHT22;13395;50.752;4.268;2023-07-31T14:12:36;20.00;99.90
25482;DHT22;13395;50.752;4.268;2023-07-31T14:15:02;20.20;99.90
25482;DHT22;13395;50.752;4.268;2023-07-31T14:17:28;20.30;99.90
25482;DHT22;13395;50.752;4.268;2023-07-31T14:19:53;20.30;99.90
25482;DHT22;13395;50.752;4.268;2023-07-31T14:22:29;20.20;99.90
25482;DHT22;13395;50.752;4.268;2023-07-31T14:24:55;20.20;99.90
25482;DHT22;13395;50.752;4.268;2023-07-31T14:27:21;20.20;99.90
25482;DHT22;13395;50.752;4.268;2023-07-31T14:29:47;20.20;99.90
25482;DHT22;13395;50.752;4.268;2023-07-31T14:32:12;20.20;99.90
25482;DHT22;13395;50.752;4.268;2023-07-31T14:34:38;20.20;99.90
25482;DHT22;13395;50.752;4.268;2023-07-31T14:37:03;20.20;99.90
25482;DHT22;13395;50.752;4.268;2023-07-31T14:39:29;20.20;99.90
25482;DHT22;13395;50.752;4.268;2023-07-31T14:41:55;20.10;99.90
25482;DHT22;13395;50.752;4.268;2023-07-31T14:44:20;20.00;99.90
25482;DHT22;13395;50.752;4.268;2023-07-31T14:46:46;20.00;99.90
25482;DHT22;13395;50.752;4.268;2023-07-31T14:49:11;20.00;99.90
25482;DHT22;13395;50.752;4.268;2023-07-31T14:51:37;19.90;99.90
25482;DHT22;13395;50.752;4.268;2023-07-31T14:54:03;19.90;99.90
25482;DHT22;13395;50.752;4.268;2023-07-31T14:56:28;19.90;99.90
25482;DHT22;13395;50.752;4.268;2023-07-31T14:58:54;20.00;99.90
25482;DHT22;13395;50.752;4.268;2023-07-31T15:01:19;19.90;99.90
25482;DHT22;13395;50.752;4.268;2023-07-31T15:03:45;19.80;99.90
25482;DHT22;13395;50.752;4.268;2023-07-31T15:06:10;19.80;99.90
25482;DHT22;13395;50.752;4.268;2023-07-31T15:08:38;19.80;99.90
25482;DHT22;13395;50.752;4.268;2023-07-31T15:11:03;19.70;99.90
25482;DHT22;13395;50.752;4.268;2023-07-31T15:13:29;19.70;99.90
25482;DHT22;13395;50.752;4.268;2023-07-31T15:15:55;19.70;99.90
25482;DHT22;13395;50.752;4.268;2023-07-31T15:18:21;19.60;99.90
25482;DHT22;13395;50.752;4.268;2023-07-31T15:20:47;19.70;99.90
25482;DHT22;13395;50.752;4.268;2023-07-31T15:23:13;19.70;99.90
25482;DHT22;13395;50.752;4.268;2023-07-31T15:25:38;19.70;99.90
25482;DHT22;13395;50.752;4.268;2023-07-31T15:28:04;19.60;99.90
25482;DHT22;13395;50.752;4.268;2023-07-31T15:30:32;19.50;99.90
25482;DHT22;13395;50.752;4.268;2023-07-31T15:32:58;19.50;99.90
25482;DHT22;13395;50.752;4.268;2023-07-31T15:35:24;19.50;99.90
25482;DHT22;13395;50.752;4.268;2023-07-31T15:37:52;19.60;99.90
25482;DHT22;13395;50.752;4.268;2023-07-31T15:40:17;19.40;99.90
25482;DHT22;13395;50.752;4.268;2023-07-31T15:42:43;19.40;99.90
25482;DHT22;13395;50.752;4.268;2023-07-31T15:45:09;19.40;99.90